Impacts TAF Board
For situational awareness. Not to be used for flight planning purposes.
IDs:

KSLC - Salt Lake City Intl, UT, US

Issued at 2031 UTC 19 Jan 2019
Updated at 2239 UTC 19 Jan 2019
Potential Impact None Slight Moderate High
Time2154Z 19/23Z 20/00Z 20/01Z 20/02Z 20/03Z 20/04Z 20/05Z 20/06Z 20/07Z 20/08Z 20/09Z 20/10Z 20/11Z>>
Type OBS PRVL PRVL PRVL PRVL PRVL PRVL PRVL PRVL PRVL PRVL PRVL PRVL PRVL
VIS 10 >6 >6 >6 >6 >6 >6 >6 >6 >6 >6 >6 >6 >6
CIG 48 70 70 70 70 70 70 70 -- -- -- -- -- --
Cover BKN BKN BKN BKN BKN BKN BKN BKN SCT SCT SCT SCT SCT SCT
FltCat VFR VFR VFR VFR VFR VFR VFR VFR VFR VFR VFR VFR VFR VFR
WX -- -- -- -- -- -- -- -- -- -- -- -- -- --
WDir 160 160 160 160 160 160 160 160 150 150 150 150 150 150
WSpd 9 7 7 7 7 7 7 7 6 6 6 6 6 6
WGst -- -- -- -- -- -- -- -- -- -- -- -- -- --
Raw TAF
KSLC 192031Z 1921/2024 15008KT P6SM OVC040
  FM192300 16007KT P6SM BKN070
  FM200600 15006KT P6SM SCT070
  FM201900 17010KT P6SM SCT150


Raw METAR
KSLC 192154Z 16009KT 10SM BKN048 06/M01 A3036 RMK AO2 SLP279 T00561006
KSLC 192054Z 15010KT 10SM BKN040 OVC047 04/M02 A3036 RMK AO2 SLP291 T00441017 58022
KSLC 191954Z 18009KT 10SM OVC036 04/M03 A3041 RMK AO2 SLP306 T00391028

METAR Board
Radar Display
Forecast Discussion
For situational awareness. Not to be used for flight planning purposes.